createdAt,value
2018-02-19T00:00:51.525Z,-1.80
2018-02-19T00:03:24.643Z,-1.60
2018-02-19T00:05:57.787Z,-1.40
2018-02-19T00:08:30.129Z,-1.60
2018-02-19T00:11:02.537Z,-1.50
2018-02-19T00:13:35.150Z,-1.60
2018-02-19T00:16:07.663Z,-1.50
2018-02-19T00:18:40.058Z,-1.50
2018-02-19T00:21:12.430Z,-1.60
2018-02-19T00:23:44.881Z,-1.50
2018-02-19T00:26:17.258Z,-1.40
2018-02-19T00:28:50.531Z,-1.20
2018-02-19T00:31:23.401Z,-1.50
2018-02-19T00:33:55.934Z,-1.30
2018-02-19T00:36:28.387Z,-1.20
2018-02-19T00:39:00.934Z,-1.00
2018-02-19T00:41:33.461Z,-1.20
2018-02-19T00:44:06.196Z,-1.00
2018-02-19T00:46:38.611Z,-1.20
2018-02-19T00:49:11.284Z,-1.10
2018-02-19T00:51:43.924Z,-1.30
2018-02-19T00:54:16.446Z,-1.10
2018-02-19T00:56:49.724Z,-1.10
2018-02-19T00:59:22.266Z,-1.20
2018-02-19T01:01:55.512Z,-1.00
2018-02-19T01:04:28.655Z,-1.20
2018-02-19T01:07:01.186Z,-1.10
2018-02-19T01:09:34.365Z,-1.20
2018-02-19T01:12:07.477Z,-1.10
2018-02-19T01:14:40.652Z,-1.30
2018-02-19T01:17:13.649Z,-1.00
2018-02-19T01:19:46.202Z,-1.20
2018-02-19T01:22:19.356Z,-1.10
2018-02-19T01:24:52.011Z,-1.10
2018-02-19T01:27:24.598Z,-1.20
2018-02-19T01:29:57.082Z,-1.20
2018-02-19T01:32:30.469Z,-1.20
2018-02-19T01:35:03.270Z,-1.30
2018-02-19T01:37:36.988Z,-1.30
2018-02-19T01:40:10.306Z,-1.40
2018-02-19T01:42:42.745Z,-1.20
2018-02-19T01:45:15.220Z,-1.20
2018-02-19T01:47:47.860Z,-1.40
2018-02-19T01:50:21.019Z,-1.50
2018-02-19T01:52:54.531Z,-1.40
2018-02-19T01:55:27.540Z,-1.20
2018-02-19T01:58:01.369Z,-1.40
2018-02-19T02:00:33.909Z,-1.40
2018-02-19T02:03:06.410Z,-1.50
2018-02-19T02:05:38.901Z,-1.40
2018-02-19T02:08:11.463Z,-1.40
2018-02-19T02:10:43.961Z,-1.30
2018-02-19T02:13:16.988Z,-1.40
2018-02-19T02:15:57.215Z,-1.30
2018-02-19T02:18:29.697Z,-1.40
2018-02-19T02:21:02.535Z,-1.40
2018-02-19T02:23:35.593Z,-1.50
2018-02-19T02:26:08.910Z,-1.50
2018-02-19T02:28:42.259Z,-1.40
2018-02-19T02:31:14.768Z,-1.40
2018-02-19T02:33:47.454Z,-1.50
2018-02-19T02:36:20.617Z,-1.50
2018-02-19T02:38:54.032Z,-1.40
2018-02-19T02:41:26.722Z,-1.70
2018-02-19T02:43:59.937Z,-1.60
2018-02-19T02:46:32.462Z,-1.50
2018-02-19T02:49:05.739Z,-1.60
2018-02-19T02:51:38.081Z,-1.70
2018-02-19T02:54:10.418Z,-1.60
2018-02-19T02:56:43.759Z,-1.60
2018-02-19T02:59:16.659Z,-1.50
2018-02-19T03:01:50.060Z,-1.40
2018-02-19T03:04:23.457Z,-1.60
2018-02-19T03:06:56.305Z,-1.50
2018-02-19T03:09:28.970Z,-1.50
2018-02-19T03:12:01.557Z,-1.30
2018-02-19T03:14:35.049Z,-1.30
2018-02-19T03:17:08.491Z,-1.50
2018-02-19T03:19:42.003Z,-1.60
2018-02-19T03:22:14.677Z,-1.40
2018-02-19T03:24:48.458Z,-1.40
2018-02-19T03:27:21.655Z,-1.50
2018-02-19T03:29:54.894Z,-1.50
2018-02-19T03:32:28.344Z,-1.50
2018-02-19T03:35:02.516Z,-1.50
2018-02-19T03:37:36.573Z,-1.40
2018-02-19T03:40:09.061Z,-1.60
2018-02-19T03:42:42.508Z,-1.70
2018-02-19T03:45:15.366Z,-1.60
2018-02-19T03:47:47.858Z,-1.30
2018-02-19T03:50:20.496Z,-1.40
2018-02-19T03:52:53.078Z,-1.40
2018-02-19T03:55:25.534Z,-1.40
2018-02-19T03:57:57.859Z,-1.60
2018-02-19T04:00:30.449Z,-1.60
2018-02-19T04:03:02.835Z,-1.50
2018-02-19T04:05:35.368Z,-1.40
2018-02-19T04:08:08.574Z,-1.40
2018-02-19T04:10:41.176Z,-1.40
2018-02-19T04:13:13.841Z,-1.30
2018-02-19T04:15:46.284Z,-1.50
2018-02-19T04:18:19.034Z,-1.60
2018-02-19T04:20:51.408Z,-1.60
2018-02-19T04:23:24.889Z,-1.40
2018-02-19T04:25:57.666Z,-1.40
2018-02-19T04:28:30.995Z,-1.30
2018-02-19T04:31:04.018Z,-1.40
2018-02-19T04:33:36.549Z,-1.40
2018-02-19T04:36:09.777Z,-1.50
2018-02-19T04:38:43.467Z,-1.10
2018-02-19T04:41:16.730Z,-1.40
2018-02-19T04:43:50.776Z,-1.20
2018-02-19T04:46:25.254Z,-1.30
2018-02-19T04:48:59.313Z,-1.20
2018-02-19T04:51:31.795Z,-1.10
2018-02-19T04:54:04.543Z,-1.10
2018-02-19T04:56:36.934Z,-1.10
2018-02-19T04:59:09.433Z,-1.10
2018-02-19T05:01:42.091Z,-1.10
2018-02-19T05:04:14.577Z,-1.10
2018-02-19T05:06:47.164Z,-1.20
2018-02-19T05:09:19.595Z,-1.00
2018-02-19T05:11:52.213Z,-1.00
2018-02-19T05:14:24.582Z,-1.10
2018-02-19T05:16:56.913Z,-1.20
2018-02-19T05:19:30.232Z,-1.10
2018-02-19T05:22:02.713Z,-1.10
2018-02-19T05:24:35.172Z,-1.00
2018-02-19T05:27:07.661Z,-1.10
2018-02-19T05:29:40.235Z,-1.00
2018-02-19T05:32:12.809Z,-1.10
2018-02-19T05:34:46.424Z,-1.00
2018-02-19T05:37:19.320Z,-1.00
2018-02-19T05:39:51.679Z,-1.10
2018-02-19T05:42:24.425Z,-1.00
2018-02-19T05:44:57.763Z,-1.00
2018-02-19T05:47:30.819Z,-0.90
2018-02-19T05:50:05.187Z,-1.10
2018-02-19T05:52:37.987Z,-1.10
2018-02-19T05:55:12.014Z,-0.80
2018-02-19T05:57:44.825Z,-0.80
2018-02-19T06:00:17.125Z,-0.70
2018-02-19T06:02:50.293Z,-1.00
2018-02-19T06:05:23.650Z,-1.00
2018-02-19T06:07:56.362Z,-0.80
2018-02-19T06:10:28.865Z,-1.00
2018-02-19T06:13:02.205Z,-0.60
2018-02-19T06:15:34.741Z,-0.90
2018-02-19T06:18:07.177Z,-0.60
2018-02-19T06:20:39.598Z,-0.80
2018-02-19T06:23:12.095Z,-0.80
2018-02-19T06:25:44.674Z,-0.80
2018-02-19T06:28:17.163Z,-0.70
2018-02-19T06:30:49.622Z,-0.90
2018-02-19T06:33:22.181Z,-0.90
2018-02-19T06:35:54.625Z,-1.00
2018-02-19T06:38:28.280Z,-0.90
2018-02-19T06:41:00.622Z,-1.00
2018-02-19T06:43:33.051Z,-0.90
2018-02-19T06:46:06.272Z,-0.70
2018-02-19T06:48:39.411Z,-0.80
2018-02-19T06:51:11.915Z,-0.80
2018-02-19T06:53:44.420Z,-0.80
2018-02-19T06:56:17.124Z,-0.60
2018-02-19T06:58:49.858Z,-0.60
2018-02-19T07:01:23.023Z,-0.90
2018-02-19T07:03:56.103Z,-0.60
2018-02-19T07:06:29.830Z,-0.70
2018-02-19T07:09:02.289Z,-0.70
2018-02-19T07:11:34.798Z,-0.50
2018-02-19T07:14:07.367Z,-0.60
2018-02-19T07:16:39.736Z,-0.50
2018-02-19T07:19:12.910Z,-0.50
2018-02-19T07:21:45.707Z,-0.40
2018-02-19T07:24:18.197Z,-0.30
2018-02-19T07:26:50.664Z,-0.60
2018-02-19T07:29:24.209Z,-0.50
2018-02-19T07:31:56.840Z,-0.40
2018-02-19T07:34:29.445Z,-0.60
2018-02-19T07:37:01.855Z,-0.30
2018-02-19T07:39:34.245Z,-0.60
2018-02-19T07:42:06.683Z,-0.50
2018-02-19T07:44:39.185Z,-0.40
2018-02-19T07:47:11.587Z,-0.70
2018-02-19T07:49:44.881Z,-0.50
2018-02-19T07:52:17.758Z,-0.70
2018-02-19T07:54:51.241Z,-0.50
2018-02-19T07:57:24.804Z,-0.50
2018-02-19T07:59:57.512Z,-0.60
2018-02-19T08:02:31.291Z,-0.40
2018-02-19T08:05:03.853Z,-0.60
2018-02-19T08:07:37.129Z,-0.40
2018-02-19T08:10:10.672Z,-0.30
2018-02-19T08:12:43.482Z,-0.30
2018-02-19T08:15:15.949Z,-0.20
2018-02-19T08:17:48.539Z,-0.40
2018-02-19T08:20:21.310Z,-0.50
2018-02-19T08:22:53.849Z,-0.40
2018-02-19T08:25:27.247Z,-0.20
2018-02-19T08:28:00.130Z,-0.40
2018-02-19T08:30:32.668Z,-0.20
2018-02-19T08:33:05.183Z,-0.40
2018-02-19T08:35:37.845Z,-0.30
2018-02-19T08:38:10.349Z,-0.30
2018-02-19T08:40:42.822Z,-0.40
2018-02-19T08:43:15.388Z,-0.30
2018-02-19T08:45:47.980Z,-0.30
2018-02-19T08:48:21.239Z,-0.20
2018-02-19T08:50:53.934Z,-0.20
2018-02-19T08:53:26.458Z,-0.20
2018-02-19T08:55:58.904Z,0.00
2018-02-19T08:58:31.478Z,-0.10
2018-02-19T09:01:03.976Z,0.10
2018-02-19T09:03:36.410Z,0.00
2018-02-19T09:06:09.563Z,0.10
2018-02-19T09:08:42.063Z,0.00
2018-02-19T09:11:14.576Z,0.10
2018-02-19T09:13:47.501Z,0.10
2018-02-19T09:16:20.445Z,0.20
2018-02-19T09:18:54.172Z,0.30
2018-02-19T09:21:27.333Z,0.30
2018-02-19T09:23:59.903Z,0.30
2018-02-19T09:26:32.449Z,0.40
2018-02-19T09:29:05.013Z,0.30
2018-02-19T09:31:37.661Z,0.20
2018-02-19T09:34:10.407Z,0.30
2018-02-19T09:36:43.060Z,0.50
2018-02-19T09:39:16.349Z,0.20
2018-02-19T09:41:48.915Z,0.40
2018-02-19T09:44:21.611Z,0.40
2018-02-19T09:46:54.186Z,0.40
2018-02-19T09:49:26.638Z,0.60
2018-02-19T09:51:59.112Z,0.40
2018-02-19T09:54:31.547Z,0.40
2018-02-19T09:57:03.988Z,0.50
2018-02-19T09:59:36.454Z,0.60
2018-02-19T10:02:08.993Z,0.40
2018-02-19T10:04:42.059Z,0.60
2018-02-19T10:07:15.413Z,0.50
2018-02-19T10:09:48.993Z,0.50
2018-02-19T10:12:21.694Z,0.60
2018-02-19T10:14:54.148Z,0.30
2018-02-19T10:17:27.522Z,0.40
2018-02-19T10:20:00.837Z,0.70
2018-02-19T10:22:33.542Z,0.70
2018-02-19T10:25:06.388Z,0.60
2018-02-19T10:27:39.345Z,0.90
2018-02-19T10:30:12.417Z,0.80
2018-02-19T10:32:45.739Z,0.90
2018-02-19T10:35:18.096Z,1.20
2018-02-19T10:37:50.661Z,1.20
2018-02-19T10:40:23.164Z,0.80
2018-02-19T10:42:55.888Z,0.90
2018-02-19T10:45:28.623Z,0.70
2018-02-19T10:48:01.234Z,0.80
2018-02-19T10:50:33.807Z,0.80
2018-02-19T10:53:06.299Z,0.50
2018-02-19T10:55:38.815Z,0.60
2018-02-19T10:58:11.242Z,0.60
2018-02-19T11:00:44.618Z,0.50
2018-02-19T11:03:17.192Z,0.20
2018-02-19T11:05:49.654Z,0.00
2018-02-19T11:08:22.273Z,0.00
2018-02-19T11:10:55.402Z,0.20
2018-02-19T11:13:28.124Z,0.20
2018-02-19T11:16:00.587Z,0.20
2018-02-19T11:18:32.956Z,0.30
2018-02-19T11:21:06.298Z,0.20
2018-02-19T11:23:39.111Z,0.40
2018-02-19T11:26:11.687Z,0.30
2018-02-19T11:28:44.192Z,0.50
2018-02-19T11:31:16.681Z,0.20
2018-02-19T11:33:49.036Z,0.20
2018-02-19T11:36:22.625Z,0.30
2018-02-19T11:38:55.895Z,0.30
2018-02-19T11:41:28.891Z,0.40
2018-02-19T11:44:01.867Z,0.20
2018-02-19T11:46:34.487Z,0.30
2018-02-19T11:49:07.041Z,0.20
2018-02-19T11:51:39.672Z,0.10
2018-02-19T11:54:12.217Z,0.20
2018-02-19T11:56:45.554Z,0.10
2018-02-19T11:59:19.688Z,0.20
2018-02-19T12:01:52.470Z,0.20
2018-02-19T12:04:24.953Z,0.20
2018-02-19T12:06:58.111Z,0.30
2018-02-19T12:09:30.929Z,0.20
2018-02-19T12:12:04.212Z,0.10
2018-02-19T12:14:36.582Z,0.20
2018-02-19T12:17:08.944Z,0.10
2018-02-19T12:19:41.415Z,0.20
2018-02-19T12:22:13.750Z,0.00
2018-02-19T12:24:46.214Z,0.30
2018-02-19T12:27:18.838Z,0.30
2018-02-19T12:29:51.381Z,0.00
2018-02-19T12:32:24.813Z,0.30
2018-02-19T12:34:57.594Z,0.20
2018-02-19T12:37:30.207Z,0.30
2018-02-19T12:40:02.731Z,0.20
2018-02-19T12:42:35.229Z,0.40
2018-02-19T12:45:07.869Z,0.30
2018-02-19T12:47:40.896Z,0.40
2018-02-19T12:50:14.015Z,0.50
2018-02-19T12:52:46.932Z,0.30
2018-02-19T12:55:19.748Z,0.50
2018-02-19T12:57:52.071Z,0.30
2018-02-19T13:00:24.562Z,0.20
2018-02-19T13:02:57.032Z,0.50
2018-02-19T13:05:29.700Z,0.20
2018-02-19T13:08:02.877Z,0.40
2018-02-19T13:10:35.621Z,0.50
2018-02-19T13:13:08.941Z,0.50
2018-02-19T13:15:41.529Z,0.40
2018-02-19T13:18:14.077Z,0.10
2018-02-19T13:20:46.585Z,0.30
2018-02-19T13:23:19.039Z,0.20
2018-02-19T13:25:52.324Z,0.30
2018-02-19T13:28:25.788Z,0.20
2018-02-19T13:30:58.526Z,0.40
2018-02-19T13:33:31.083Z,0.30
2018-02-19T13:36:03.629Z,0.20
2018-02-19T13:38:36.176Z,0.20
2018-02-19T13:41:08.610Z,0.20
2018-02-19T13:43:41.167Z,0.20
2018-02-19T13:46:14.475Z,0.20
2018-02-19T13:48:47.143Z,0.30
2018-02-19T13:51:19.677Z,0.30
2018-02-19T13:53:52.195Z,0.30
2018-02-19T13:56:25.459Z,0.40
2018-02-19T13:58:58.528Z,0.20
2018-02-19T14:01:31.188Z,0.30
2018-02-19T14:04:05.038Z,0.10
2018-02-19T14:06:39.206Z,0.30
2018-02-19T14:09:12.049Z,0.10
2018-02-19T14:11:44.679Z,0.30
2018-02-19T14:14:18.723Z,0.10
2018-02-19T14:16:51.635Z,0.30
2018-02-19T14:19:24.815Z,0.10
2018-02-19T14:21:57.726Z,0.20
2018-02-19T14:24:30.172Z,0.00
2018-02-19T14:27:03.570Z,0.00
2018-02-19T14:29:36.925Z,0.20
2018-02-19T14:32:09.431Z,0.20
2018-02-19T14:34:42.637Z,0.20
2018-02-19T14:37:15.550Z,0.30
2018-02-19T14:39:48.804Z,0.10
2018-02-19T14:42:21.436Z,0.10
2018-02-19T14:44:54.815Z,0.20
2018-02-19T14:47:27.254Z,0.20
2018-02-19T14:49:59.756Z,0.00
2018-02-19T14:52:32.387Z,0.00
2018-02-19T14:55:06.134Z,-0.10
2018-02-19T14:57:39.281Z,0.00
2018-02-19T15:00:12.496Z,0.00
2018-02-19T15:02:45.796Z,-0.10
2018-02-19T15:05:18.565Z,-0.10
2018-02-19T15:07:51.093Z,-0.20
2018-02-19T15:10:24.397Z,-0.10
2018-02-19T15:12:57.748Z,-0.10
2018-02-19T15:15:30.691Z,-0.20
2018-02-19T15:18:03.912Z,-0.20
2018-02-19T15:20:36.466Z,0.00
2018-02-19T15:23:09.083Z,-0.30
2018-02-19T15:25:41.522Z,-0.10
2018-02-19T15:28:15.041Z,-0.20
2018-02-19T15:30:47.367Z,-0.20
2018-02-19T15:33:20.017Z,-0.10
2018-02-19T15:35:52.620Z,-0.10
2018-02-19T15:38:25.865Z,-0.10
2018-02-19T15:40:58.834Z,0.00
2018-02-19T15:43:31.183Z,0.00
2018-02-19T15:46:04.653Z,-0.20
2018-02-19T15:48:38.155Z,-0.30
2018-02-19T15:51:10.825Z,-0.40
2018-02-19T15:53:43.259Z,-0.30
2018-02-19T15:56:16.576Z,-0.50
2018-02-19T15:58:50.237Z,-0.50
2018-02-19T16:01:22.880Z,-0.50
2018-02-19T16:03:55.409Z,-0.40
2018-02-19T16:06:28.727Z,-0.40
2018-02-19T16:09:01.284Z,-0.30
2018-02-19T16:11:33.856Z,-0.40
2018-02-19T16:14:06.504Z,-0.20
2018-02-19T16:16:38.940Z,-0.30
2018-02-19T16:19:11.474Z,-0.60
2018-02-19T16:21:43.879Z,-0.40
2018-02-19T16:24:16.816Z,-0.40
2018-02-19T16:26:50.852Z,-0.20
2018-02-19T16:29:23.877Z,-0.30
2018-02-19T16:31:56.303Z,-0.30
2018-02-19T16:34:28.767Z,-0.50
2018-02-19T16:37:01.346Z,-0.40
2018-02-19T16:39:33.785Z,-0.40
2018-02-19T16:42:07.135Z,-0.40
2018-02-19T16:44:39.815Z,-0.40
2018-02-19T16:47:13.324Z,-0.30
2018-02-19T16:49:46.243Z,-0.50
2018-02-19T16:52:18.832Z,-0.60
2018-02-19T16:54:52.285Z,-0.60
2018-02-19T16:57:25.743Z,-0.70
2018-02-19T16:59:58.615Z,-0.50
2018-02-19T17:02:31.047Z,-0.50
2018-02-19T17:05:03.643Z,-0.60
2018-02-19T17:07:36.059Z,-0.50
2018-02-19T17:10:08.656Z,-0.50
2018-02-19T17:12:41.838Z,-0.40
2018-02-19T17:15:14.837Z,-0.60
2018-02-19T17:17:47.429Z,-0.50
2018-02-19T17:20:19.875Z,-0.40
2018-02-19T17:22:52.207Z,-0.50
2018-02-19T17:25:24.986Z,-0.50
2018-02-19T17:27:57.401Z,-0.60
2018-02-19T17:30:30.712Z,-0.60
2018-02-19T17:33:03.371Z,-0.60
2018-02-19T17:35:36.388Z,-0.80
2018-02-19T17:38:09.363Z,-0.50
2018-02-19T17:40:42.604Z,-0.60
2018-02-19T17:43:15.205Z,-0.60
2018-02-19T17:45:48.615Z,-0.70
2018-02-19T17:48:22.093Z,-0.70
2018-02-19T17:50:54.762Z,-0.50
2018-02-19T17:53:27.307Z,-0.60
2018-02-19T17:55:59.913Z,-0.40
2018-02-19T17:58:32.419Z,-0.40
2018-02-19T18:01:04.994Z,-0.60
2018-02-19T18:03:37.480Z,-0.40
2018-02-19T18:06:10.121Z,-0.40
2018-02-19T18:08:43.203Z,-0.30
2018-02-19T18:11:16.041Z,-0.30
2018-02-19T18:13:48.533Z,-0.60
2018-02-19T18:16:21.061Z,-0.50
2018-02-19T18:18:53.579Z,-0.40
2018-02-19T18:21:26.243Z,-0.50
2018-02-19T18:24:00.049Z,-0.60
2018-02-19T18:26:33.151Z,-0.40
2018-02-19T18:29:05.755Z,-0.40
2018-02-19T18:31:38.913Z,-0.60
2018-02-19T18:34:12.171Z,-0.30
2018-02-19T18:36:45.283Z,-0.60
2018-02-19T18:39:17.916Z,-0.60
2018-02-19T18:42:00.393Z,-0.20
2018-02-19T18:44:33.182Z,-0.50
2018-02-19T18:47:06.136Z,-0.40
2018-02-19T18:49:39.732Z,-0.40
2018-02-19T18:52:13.020Z,-0.60
2018-02-19T18:54:45.730Z,-0.60
2018-02-19T18:57:19.314Z,-0.50
2018-02-19T18:59:51.828Z,-0.60
2018-02-19T19:02:24.383Z,-0.50
2018-02-19T19:04:57.363Z,-0.40
2018-02-19T19:10:54.197Z,-0.50
2018-02-19T19:13:27.744Z,-0.40
2018-02-19T19:16:23.368Z,-0.60
2018-02-19T19:18:56.885Z,-0.40
2018-02-19T19:21:30.854Z,-0.40
2018-02-19T19:24:04.045Z,-0.40
2018-02-19T19:26:41.319Z,-0.60
2018-02-19T19:29:14.969Z,-0.60
2018-02-19T19:31:48.109Z,-0.70
2018-02-19T19:34:23.088Z,-0.50
2018-02-19T19:36:57.302Z,-0.30
2018-02-19T19:39:31.498Z,-0.60
2018-02-19T19:42:05.732Z,-0.30
2018-02-19T19:44:40.541Z,-0.60
2018-02-19T19:47:15.106Z,-0.30
2018-02-19T19:49:50.150Z,-0.40
2018-02-19T19:52:25.559Z,-0.40
2018-02-19T19:55:01.109Z,-0.40
2018-02-19T19:57:36.454Z,-0.40
2018-02-19T20:00:11.966Z,-0.40
2018-02-19T20:02:47.301Z,-0.20
2018-02-19T20:05:24.045Z,-0.50
2018-02-19T20:08:00.259Z,-0.50
2018-02-19T20:10:36.946Z,-0.30
2018-02-19T20:13:12.879Z,-0.10
2018-02-19T20:15:48.910Z,-0.30
2018-02-19T20:18:24.704Z,-0.20
2018-02-19T20:21:01.257Z,-0.20
2018-02-19T20:23:37.744Z,-0.20
2018-02-19T20:26:14.074Z,-0.40
2018-02-19T20:28:52.371Z,-0.20
2018-02-19T20:31:28.211Z,-0.40
2018-02-19T20:34:03.660Z,-0.30
2018-02-19T20:36:38.964Z,-0.30
2018-02-19T20:39:14.244Z,-0.50
2018-02-19T20:41:50.132Z,-0.20
2018-02-19T20:44:25.193Z,-0.40
2018-02-19T20:47:00.948Z,-0.20
2018-02-19T20:49:36.074Z,-0.40
2018-02-19T20:52:11.649Z,-0.30
2018-02-19T20:54:46.860Z,-0.40
2018-02-19T20:57:22.202Z,-0.20
2018-02-19T20:59:57.628Z,-0.40
2018-02-19T21:02:33.443Z,-0.50
2018-02-19T21:05:08.386Z,-0.50
2018-02-19T21:07:44.040Z,-0.30
2018-02-19T21:10:19.816Z,-0.40
2018-02-19T21:12:56.239Z,-0.50
2018-02-19T21:15:31.712Z,-0.20
2018-02-19T21:18:08.384Z,-0.20
2018-02-19T21:20:42.475Z,-0.50
2018-02-19T21:23:16.792Z,-0.50
2018-02-19T21:25:50.594Z,-0.30
2018-02-19T21:28:24.148Z,-0.40
2018-02-19T21:30:56.835Z,-0.60
2018-02-19T21:33:30.065Z,-0.40
2018-02-19T21:36:04.162Z,-0.20
2018-02-19T21:38:37.498Z,-0.20
2018-02-19T21:41:10.129Z,-0.20
2018-02-19T21:43:44.237Z,-0.30
2018-02-19T21:46:16.951Z,-0.50
2018-02-19T21:48:49.512Z,-0.30
2018-02-19T21:51:22.615Z,-0.30
2018-02-19T21:53:55.365Z,-0.30
2018-02-19T21:56:27.723Z,-0.30
2018-02-19T21:59:00.138Z,-0.20
2018-02-19T22:01:33.368Z,-0.30
2018-02-19T22:04:06.183Z,-0.30
2018-02-19T22:06:39.469Z,-0.50
2018-02-19T22:09:12.009Z,-0.20
2018-02-19T22:11:44.533Z,-0.40
2018-02-19T22:14:17.036Z,-0.20
2018-02-19T22:16:50.136Z,-0.20
2018-02-19T22:19:22.853Z,-0.20
2018-02-19T22:21:55.251Z,-0.30
2018-02-19T22:24:28.729Z,-0.10
2018-02-19T22:27:01.701Z,-0.20
2018-02-19T22:29:34.867Z,-0.30
2018-02-19T22:32:08.201Z,-0.20
2018-02-19T22:34:40.934Z,-0.20
2018-02-19T22:37:13.365Z,-0.20
2018-02-19T22:39:45.874Z,-0.10
2018-02-19T22:42:18.289Z,0.00
2018-02-19T22:44:52.308Z,-0.10
2018-02-19T22:47:25.713Z,-0.10
2018-02-19T22:49:59.108Z,-0.30
2018-02-19T22:52:31.843Z,-0.10
2018-02-19T22:55:05.046Z,-0.30
2018-02-19T22:57:37.732Z,-0.20
2018-02-19T23:00:12.112Z,0.00
2018-02-19T23:02:45.651Z,-0.10
2018-02-19T23:05:18.451Z,-0.10
2018-02-19T23:07:52.378Z,-0.10
2018-02-19T23:10:26.027Z,-0.10
2018-02-19T23:12:59.007Z,-0.10
2018-02-19T23:15:31.430Z,-0.10
2018-02-19T23:18:05.786Z,-0.20
2018-02-19T23:20:39.184Z,-0.20
2018-02-19T23:23:12.507Z,-0.10
2018-02-19T23:25:44.902Z,-0.30
2018-02-19T23:28:18.132Z,-0.30
2018-02-19T23:30:51.638Z,-0.10
2018-02-19T23:33:24.530Z,-0.30
2018-02-19T23:35:56.896Z,0.00
2018-02-19T23:38:29.980Z,0.00
2018-02-19T23:41:02.824Z,-0.10
2018-02-19T23:43:35.237Z,-0.20
2018-02-19T23:46:07.846Z,-0.30
2018-02-19T23:48:40.378Z,-0.10
2018-02-19T23:51:12.965Z,0.00
2018-02-19T23:53:45.537Z,-0.30
2018-02-19T23:56:19.046Z,-0.20
2018-02-19T23:58:51.843Z,-0.20
